Terminal Aerodrome Forecast
Issued by NWS Grand Junction, CO

Home | Current Version | Previous Version | Text Only | Print | Product List | Glossary On
Versions: 1 2 3 4 5 6 7 8 9 10 11 12 13 14 15 16 17
000
FTUS45 KGJT 280520
TAFGJT
TAF
KGJT 280520Z 2806/2906 31009KT P6SM SCT130
     FM280800 06005KT P6SM FEW140
     FM281300 13008KT P6SM FEW180
     FM281800 25007KT P6SM FEW250
     FM282200 27018G27KT P6SM FEW250
     FM290300 25009KT P6SM SCT250=

USA.gov is the U.S. government's official web portal to all federal, state and local government web resources and services.